Time;durP1;ratioP1;P1;durP2;ratioP2;P2;SDS_P1;SDS_P2;PMS_P1;PMS_P2;Temp;Humidity;BMP_temperature;BMP_pressure;BME280_temperature;BME280_humidity;BME280_pressure;Samples;Min_cycle;Max_cycle;Signal;HPM_P1;HPM_P2
2023/08/22 00:00:27;;;;;;;;;;;26.30;51.60;;;;;;5010438;28;88187;-43
2023/08/22 00:02:53;;;;;;;;;;;26.30;51.60;;;;;;5012538;28;87188;-46
2023/08/22 00:05:19;;;;;;;;;;;26.30;51.60;;;;;;5013585;28;87318;-44
2023/08/22 00:07:45;;;;;;;;;;;26.30;51.60;;;;;;5013425;28;87395;-44
2023/08/22 00:10:10;;;;;;;;;;;26.20;51.60;;;;;;5012693;28;87276;-43
2023/08/22 00:12:36;;;;;;;;;;;26.30;51.70;;;;;;5014370;28;87362;-45
2023/08/22 00:15:05;;;;;;;;;;;26.20;51.70;;;;;;5009567;28;88991;-44
2023/08/22 00:17:31;;;;;;;;;;;26.20;51.50;;;;;;5008111;28;87126;-43
2023/08/22 00:19:56;;;;;;;;;;;26.20;51.60;;;;;;5016305;28;87480;-44
2023/08/22 00:22:22;;;;;;;;;;;26.20;51.60;;;;;;5012768;28;87159;-43
2023/08/22 00:24:47;;;;;;;;;;;26.20;51.70;;;;;;5013116;28;87172;-42
2023/08/22 00:27:13;;;;;;;;;;;26.10;51.60;;;;;;5013161;28;87838;-44
2023/08/22 00:29:38;;;;;;;;;;;26.20;51.70;;;;;;5008986;28;87139;-45
2023/08/22 00:32:04;;;;;;;;;;;26.10;51.60;;;;;;5012154;28;87267;-45
2023/08/22 00:34:29;;;;;;;;;;;26.10;51.70;;;;;;5014288;28;87092;-45
2023/08/22 00:36:55;;;;;;;;;;;26.10;51.70;;;;;;5011007;28;87127;-44
2023/08/22 00:39:20;;;;;;;;;;;26.10;51.70;;;;;;5011701;28;89262;-45
2023/08/22 00:41:46;;;;;;;;;;;26.10;51.70;;;;;;5015051;28;88154;-44
2023/08/22 00:44:12;;;;;;;;;;;26.10;51.70;;;;;;5012752;28;87424;-44
2023/08/22 00:46:37;;;;;;;;;;;26.10;51.70;;;;;;5010799;28;90009;-44
2023/08/22 00:49:05;;;;;;;;;;;26.00;51.60;;;;;;5012086;28;87039;-45
2023/08/22 00:51:31;;;;;;;;;;;26.00;51.70;;;;;;5011839;28;87919;-43
2023/08/22 00:53:58;;;;;;;;;;;26.00;51.60;;;;;;5006562;28;88617;-43
2023/08/22 00:56:24;;;;;;;;;;;26.00;51.70;;;;;;5013712;28;86458;-44
2023/08/22 00:58:49;;;;;;;;;;;26.00;51.70;;;;;;5012280;28;87171;-44
2023/08/22 01:01:15;;;;;;;;;;;26.00;51.70;;;;;;5010250;28;87421;-44
2023/08/22 01:03:40;;;;;;;;;;;26.00;51.70;;;;;;5014981;28;88176;-43
2023/08/22 01:06:16;;;;;;;;;;;25.90;51.70;;;;;;5011278;28;88189;-44
2023/08/22 01:08:46;;;;;;;;;;;25.90;51.80;;;;;;5008101;28;86959;-45
2023/08/22 01:11:29;;;;;;;;;;;25.90;51.80;;;;;;5011843;28;87333;-44
2023/08/22 01:13:55;;;;;;;;;;;25.90;51.80;;;;;;5007348;28;87784;-43
2023/08/22 01:16:22;;;;;;;;;;;25.90;51.70;;;;;;5010535;28;87167;-42
2023/08/22 01:18:48;;;;;;;;;;;25.90;51.80;;;;;;5012358;28;87408;-43
2023/08/22 01:21:17;;;;;;;;;;;25.90;51.80;;;;;;5011720;28;87448;-42
2023/08/22 01:23:43;;;;;;;;;;;25.90;52.40;;;;;;5013914;28;87164;-44
2023/08/22 01:26:09;;;;;;;;;;;25.90;51.80;;;;;;5013102;28;87506;-44
2023/08/22 01:28:38;;;;;;;;;;;25.80;51.80;;;;;;5013078;28;88027;-44
2023/08/22 01:31:16;;;;;;;;;;;25.80;51.80;;;;;;5009949;28;87131;-44
2023/08/22 01:33:47;;;;;;;;;;;25.80;51.80;;;;;;5013407;28;88327;-43
2023/08/22 01:36:13;;;;;;;;;;;25.80;51.80;;;;;;5008075;28;87095;-44
2023/08/22 01:38:39;;;;;;;;;;;25.80;51.80;;;;;;5012626;28;87344;-46
2023/08/22 01:41:05;;;;;;;;;;;25.80;51.80;;;;;;5007924;28;88191;-46
2023/08/22 01:43:34;;;;;;;;;;;25.80;51.80;;;;;;5012791;28;88044;-42
2023/08/22 01:46:00;;;;;;;;;;;25.70;51.80;;;;;;5013262;28;87342;-44
2023/08/22 01:48:25;;;;;;;;;;;25.70;51.80;;;;;;5010097;28;87254;-43
2023/08/22 01:50:51;;;;;;;;;;;25.70;51.80;;;;;;5013184;28;87495;-44
2023/08/22 01:53:16;;;;;;;;;;;25.70;51.80;;;;;;5010144;28;89079;-44
2023/08/22 01:55:42;;;;;;;;;;;25.70;51.90;;;;;;5012296;28;87412;-44
2023/08/22 01:58:11;;;;;;;;;;;25.70;51.90;;;;;;5012191;28;87552;-44
2023/08/22 02:00:39;;;;;;;;;;;25.70;51.90;;;;;;5008411;28;88232;-44
2023/08/22 02:03:05;;;;;;;;;;;25.60;51.80;;;;;;5015686;28;87115;-44
2023/08/22 02:05:30;;;;;;;;;;;25.60;51.90;;;;;;5013593;28;87607;-42
2023/08/22 02:07:56;;;;;;;;;;;25.60;52.00;;;;;;5018843;28;88225;-43
2023/08/22 02:10:21;;;;;;;;;;;25.60;51.90;;;;;;5015128;28;87629;-45
2023/08/22 02:12:47;;;;;;;;;;;25.60;51.90;;;;;;5014792;28;88146;-43
2023/08/22 02:15:12;;;;;;;;;;;25.60;51.90;;;;;;5014926;28;87518;-45
2023/08/22 02:17:38;;;;;;;;;;;25.60;52.00;;;;;;5013200;28;88503;-44
2023/08/22 02:20:05;;;;;;;;;;;25.50;51.90;;;;;;5015933;28;88137;-45
2023/08/22 02:22:30;;;;;;;;;;;25.50;52.00;;;;;;5013192;28;87176;-42
2023/08/22 02:24:56;;;;;;;;;;;25.50;51.90;;;;;;5016646;28;87501;-44
2023/08/22 02:27:21;;;;;;;;;;;25.50;51.90;;;;;;5013444;28;87927;-45
2023/08/22 02:29:47;;;;;;;;;;;25.50;52.00;;;;;;5017916;28;87780;-47
2023/08/22 02:32:13;;;;;;;;;;;25.50;51.90;;;;;;5014704;28;87975;-44
2023/08/22 02:34:38;;;;;;;;;;;25.50;52.10;;;;;;5014986;28;86266;-45
2023/08/22 02:37:04;;;;;;;;;;;25.40;52.00;;;;;;5015587;28;87885;-43
2023/08/22 02:39:29;;;;;;;;;;;25.40;52.00;;;;;;5013344;28;88692;-42
2023/08/22 02:41:55;;;;;;;;;;;25.40;52.00;;;;;;5016139;28;88124;-43
2023/08/22 02:44:20;;;;;;;;;;;25.40;52.00;;;;;;5009039;28;88327;-43
2023/08/22 02:46:46;;;;;;;;;;;25.40;52.00;;;;;;5009301;28;90067;-43
2023/08/22 02:49:11;;;;;;;;;;;25.40;52.70;;;;;;5013819;28;87123;-43
2023/08/22 02:51:37;;;;;;;;;;;25.30;52.00;;;;;;5017611;28;88068;-43
2023/08/22 02:54:03;;;;;;;;;;;25.40;52.10;;;;;;5014775;28;87107;-44
2023/08/22 02:56:28;;;;;;;;;;;25.30;52.10;;;;;;5014110;28;87324;-43
2023/08/22 02:58:54;;;;;;;;;;;25.30;52.10;;;;;;5015746;28;87418;-44
2023/08/22 03:01:19;;;;;;;;;;;25.30;52.00;;;;;;5011989;28;87096;-44
2023/08/22 03:03:49;;;;;;;;;;;25.30;52.10;;;;;;5016226;28;87478;-42
2023/08/22 03:06:15;;;;;;;;;;;25.30;52.10;;;;;;5011096;28;89550;-43
2023/08/22 03:08:40;;;;;;;;;;;25.30;52.20;;;;;;5014775;28;87143;-43
2023/08/22 03:11:06;;;;;;;;;;;25.20;52.10;;;;;;5046190;27;88113;-42
2023/08/22 03:13:31;;;;;;;;;;;25.20;52.10;;;;;;5014840;28;87239;-44
2023/08/22 03:16:00;;;;;;;;;;;25.20;52.20;;;;;;5010931;28;87223;-43
2023/08/22 03:18:26;;;;;;;;;;;25.20;52.10;;;;;;5011842;28;88056;-42
2023/08/22 03:20:56;;;;;;;;;;;25.20;52.20;;;;;;5015686;28;86894;-42
2023/08/22 03:23:23;;;;;;;;;;;25.10;52.10;;;;;;5014266;28;86616;-44
2023/08/22 03:26:02;;;;;;;;;;;25.10;52.10;;;;;;5013253;28;89445;-44
2023/08/22 03:28:28;;;;;;;;;;;25.20;52.30;;;;;;5009572;28;87804;-43
2023/08/22 03:30:57;;;;;;;;;;;25.10;52.20;;;;;;5011141;28;89420;-43
2023/08/22 03:33:24;;;;;;;;;;;25.10;52.20;;;;;;5011587;28;88005;-44
2023/08/22 03:35:52;;;;;;;;;;;25.10;52.20;;;;;;5016005;28;87062;-44
2023/08/22 03:38:17;;;;;;;;;;;25.10;52.20;;;;;;5015092;28;87840;-44
2023/08/22 03:40:43;;;;;;;;;;;25.00;52.20;;;;;;5011509;28;87124;-42
2023/08/22 03:43:08;;;;;;;;;;;25.00;52.20;;;;;;5015363;28;87615;-45
2023/08/22 03:45:34;;;;;;;;;;;25.00;52.20;;;;;;5010478;28;88083;-44
2023/08/22 03:48:04;;;;;;;;;;;25.00;52.20;;;;;;5010772;28;86374;-43
2023/08/22 03:50:29;;;;;;;;;;;25.00;52.20;;;;;;5014169;28;87077;-44
2023/08/22 03:52:55;;;;;;;;;;;25.00;52.30;;;;;;5011933;28;88216;-42
2023/08/22 03:55:21;;;;;;;;;;;25.00;52.20;;;;;;5012572;28;88147;-44
2023/08/22 03:57:46;;;;;;;;;;;25.00;52.30;;;;;;5008497;28;87296;-43
2023/08/22 04:00:12;;;;;;;;;;;25.00;52.30;;;;;;5012090;28;87607;-45
2023/08/22 04:02:38;;;;;;;;;;;24.90;52.20;;;;;;5012900;28;87725;-43
2023/08/22 04:05:03;;;;;;;;;;;24.90;52.20;;;;;;5000146;28;87997;-44
2023/08/22 04:07:29;;;;;;;;;;;24.90;52.30;;;;;;5004606;28;87180;-44
2023/08/22 04:09:54;;;;;;;;;;;24.90;52.30;;;;;;5010992;28;87305;-43
2023/08/22 04:12:20;;;;;;;;;;;24.90;52.30;;;;;;5012926;28;87467;-44
2023/08/22 04:14:46;;;;;;;;;;;24.90;52.30;;;;;;5002746;28;87251;-43
2023/08/22 04:17:11;;;;;;;;;;;24.90;52.40;;;;;;5003939;28;87441;-44
2023/08/22 04:19:38;;;;;;;;;;;24.80;52.40;;;;;;5014013;28;88055;-44
2023/08/22 04:22:04;;;;;;;;;;;24.80;52.30;;;;;;5011521;28;88214;-45
2023/08/22 04:24:29;;;;;;;;;;;24.80;52.30;;;;;;5009960;28;88382;-46
2023/08/22 04:26:55;;;;;;;;;;;24.80;52.40;;;;;;5004425;28;87820;-43
2023/08/22 04:29:20;;;;;;;;;;;24.80;52.40;;;;;;5013702;28;87676;-42
2023/08/22 04:31:46;;;;;;;;;;;24.80;52.50;;;;;;5008037;28;87820;-44
2023/08/22 04:34:11;;;;;;;;;;;24.80;52.40;;;;;;5002321;28;87213;-43
2023/08/22 04:36:37;;;;;;;;;;;24.80;52.50;;;;;;5007121;28;87294;-43
2023/08/22 04:39:03;;;;;;;;;;;24.70;52.40;;;;;;5014105;28;88164;-44
2023/08/22 04:41:28;;;;;;;;;;;24.80;52.50;;;;;;5009197;28;87504;-45
2023/08/22 04:43:54;;;;;;;;;;;24.70;52.40;;;;;;5001919;28;92044;-44
2023/08/22 04:46:19;;;;;;;;;;;24.70;52.40;;;;;;5006669;28;88670;-44
2023/08/22 04:48:45;;;;;;;;;;;24.70;52.50;;;;;;5012335;28;87477;-43
2023/08/22 04:51:10;;;;;;;;;;;24.70;52.50;;;;;;5002503;28;88989;-44
2023/08/22 04:53:36;;;;;;;;;;;24.70;52.50;;;;;;5004968;28;88143;-43
2023/08/22 04:56:01;;;;;;;;;;;24.70;52.50;;;;;;5009459;28;87587;-43
2023/08/22 04:58:27;;;;;;;;;;;24.60;52.50;;;;;;5010830;28;87262;-44
2023/08/22 05:00:53;;;;;;;;;;;24.60;52.50;;;;;;5009941;28;86702;-46
2023/08/22 05:03:19;;;;;;;;;;;24.60;52.50;;;;;;5005334;28;88227;-42
2023/08/22 05:05:45;;;;;;;;;;;24.60;52.50;;;;;;5010514;28;87393;-43
2023/08/22 05:08:10;;;;;;;;;;;24.70;52.70;;;;;;5012494;28;87935;-44
2023/08/22 05:10:36;;;;;;;;;;;24.60;52.50;;;;;;5001594;28;88190;-43
2023/08/22 05:13:01;;;;;;;;;;;24.60;52.60;;;;;;5003513;28;87117;-45
2023/08/22 05:15:27;;;;;;;;;;;24.60;52.50;;;;;;5014237;28;87227;-43
2023/08/22 05:17:52;;;;;;;;;;;24.60;52.50;;;;;;5005540;28;88282;-44
2023/08/22 05:20:18;;;;;;;;;;;24.60;52.50;;;;;;5005420;28;87072;-44
2023/08/22 05:22:43;;;;;;;;;;;24.60;52.60;;;;;;5008638;28;87069;-43
2023/08/22 05:25:09;;;;;;;;;;;24.60;52.50;;;;;;5012897;28;86381;-46
2023/08/22 05:27:34;;;;;;;;;;;24.60;52.50;;;;;;5003820;28;87169;-44
2023/08/22 05:30:00;;;;;;;;;;;24.60;52.60;;;;;;5008884;28;87750;-44
2023/08/22 05:32:26;;;;;;;;;;;24.60;52.50;;;;;;5003749;28;88865;-44
2023/08/22 05:34:51;;;;;;;;;;;24.60;52.50;;;;;;5010310;28;87959;-43
2023/08/22 05:37:17;;;;;;;;;;;24.60;52.60;;;;;;4999717;28;87581;-44
2023/08/22 05:39:42;;;;;;;;;;;24.60;52.60;;;;;;5004431;28;88161;-44
2023/08/22 05:42:08;;;;;;;;;;;24.60;52.60;;;;;;5007634;28;87449;-43
2023/08/22 05:44:35;;;;;;;;;;;24.60;52.60;;;;;;5011747;28;87047;-44
2023/08/22 05:47:02;;;;;;;;;;;24.60;52.70;;;;;;5006020;28;87258;-44
2023/08/22 05:49:27;;;;;;;;;;;24.60;53.30;;;;;;5005475;28;87433;-44
2023/08/22 05:52:00;;;;;;;;;;;24.60;52.70;;;;;;5007955;28;87910;-43
2023/08/22 05:54:26;;;;;;;;;;;24.50;52.70;;;;;;5007919;28;87904;-43
2023/08/22 05:56:51;;;;;;;;;;;24.50;52.70;;;;;;5006533;28;89217;-46
2023/08/22 05:59:17;;;;;;;;;;;24.60;52.70;;;;;;5005268;28;87752;-44
2023/08/22 06:01:42;;;;;;;;;;;24.50;52.70;;;;;;5009142;28;87824;-44
2023/08/22 06:04:08;;;;;;;;;;;24.60;52.80;;;;;;5013386;28;88204;-43
2023/08/22 06:06:33;;;;;;;;;;;24.50;52.70;;;;;;5001822;28;87796;-45
2023/08/22 06:08:59;;;;;;;;;;;24.50;52.70;;;;;;4999905;28;89944;-43
2023/08/22 06:11:24;;;;;;;;;;;24.60;52.80;;;;;;5009838;28;87328;-44
2023/08/22 06:13:50;;;;;;;;;;;24.60;52.80;;;;;;5014031;28;87450;-44
2023/08/22 06:16:15;;;;;;;;;;;24.60;52.80;;;;;;4996093;28;87680;-45
2023/08/22 06:18:41;;;;;;;;;;;24.60;52.80;;;;;;5004079;28;87253;-44
2023/08/22 06:21:06;;;;;;;;;;;24.50;52.80;;;;;;5011208;28;87963;-44
2023/08/22 06:23:32;;;;;;;;;;;24.60;52.80;;;;;;5008888;28;88022;-44
2023/08/22 06:25:57;;;;;;;;;;;24.60;52.80;;;;;;5001660;28;87194;-43
2023/08/22 06:28:23;;;;;;;;;;;24.60;52.80;;;;;;5005806;28;88261;-44
2023/08/22 06:30:49;;;;;;;;;;;24.60;52.90;;;;;;5009815;28;87220;-44
2023/08/22 06:33:16;;;;;;;;;;;24.60;52.90;;;;;;5004969;28;87865;-44
2023/08/22 06:35:45;;;;;;;;;;;24.60;52.90;;;;;;5003371;28;87927;-43
2023/08/22 06:38:10;;;;;;;;;;;24.50;52.80;;;;;;5008928;28;86192;-44
2023/08/22 06:40:36;;;;;;;;;;;24.50;52.90;;;;;;5012081;28;87088;-44
2023/08/22 06:43:02;;;;;;;;;;;24.60;52.80;;;;;;4999400;28;88155;-46
2023/08/22 06:45:27;;;;;;;;;;;24.60;52.90;;;;;;5006597;28;88093;-44
2023/08/22 06:47:53;;;;;;;;;;;24.50;52.80;;;;;;5007703;28;88562;-44
2023/08/22 06:50:18;;;;;;;;;;;24.60;53.00;;;;;;5012401;28;87672;-47
2023/08/22 06:52:44;;;;;;;;;;;24.50;52.90;;;;;;5007280;28;87588;-46
2023/08/22 06:55:09;;;;;;;;;;;24.60;52.90;;;;;;5008383;28;87903;-44
2023/08/22 06:57:35;;;;;;;;;;;24.60;52.90;;;;;;5014270;28;87316;-43
2023/08/22 07:00:10;;;;;;;;;;;24.60;53.00;;;;;;5013019;28;87114;-45
2023/08/22 07:02:36;;;;;;;;;;;24.60;53.00;;;;;;5005118;28;86622;-42
2023/08/22 07:05:02;;;;;;;;;;;24.60;53.00;;;;;;5008414;28;87797;-44
2023/08/22 07:07:27;;;;;;;;;;;24.60;53.00;;;;;;5014993;28;87420;-44
2023/08/22 07:09:53;;;;;;;;;;;24.60;53.00;;;;;;5009708;28;89099;-43
2023/08/22 07:12:18;;;;;;;;;;;24.60;53.10;;;;;;5000532;28;87591;-45
2023/08/22 07:14:44;;;;;;;;;;;24.60;53.00;;;;;;5010345;28;88071;-46
2023/08/22 07:17:09;;;;;;;;;;;24.60;53.00;;;;;;5011336;28;87212;-45
2023/08/22 07:19:35;;;;;;;;;;;24.60;53.00;;;;;;5006679;28;87355;-43
2023/08/22 07:22:00;;;;;;;;;;;24.60;53.10;;;;;;5006486;28;88324;-44
2023/08/22 07:24:26;;;;;;;;;;;24.60;53.00;;;;;;5012049;28;87101;-45
2023/08/22 07:26:51;;;;;;;;;;;24.60;53.00;;;;;;5013597;28;87626;-45
2023/08/22 07:29:17;;;;;;;;;;;24.60;53.10;;;;;;4998346;28;88160;-44
2023/08/22 07:31:42;;;;;;;;;;;24.60;53.10;;;;;;5010853;28;87247;-45
2023/08/22 07:34:08;;;;;;;;;;;24.60;53.10;;;;;;5010284;28;89129;-43
2023/08/22 07:36:33;;;;;;;;;;;24.60;53.10;;;;;;5009721;28;87011;-43
2023/08/22 07:38:59;;;;;;;;;;;24.60;53.00;;;;;;5007263;28;87872;-45
2023/08/22 07:41:25;;;;;;;;;;;24.60;53.10;;;;;;5003819;28;88084;-44
2023/08/22 07:43:50;;;;;;;;;;;24.60;53.10;;;;;;5015101;28;87150;-45
2023/08/22 07:46:16;;;;;;;;;;;24.60;53.10;;;;;;5012186;28;87218;-43
2023/08/22 07:48:41;;;;;;;;;;;24.60;53.10;;;;;;5004402;28;88257;-45
2023/08/22 07:51:07;;;;;;;;;;;24.60;53.10;;;;;;5009999;28;86347;-47
2023/08/22 07:53:32;;;;;;;;;;;24.60;53.10;;;;;;5012585;28;87996;-45
2023/08/22 07:55:58;;;;;;;;;;;24.60;53.20;;;;;;5011375;28;87847;-46
2023/08/22 07:58:24;;;;;;;;;;;24.60;53.20;;;;;;5004635;28;88173;-43
2023/08/22 08:00:49;;;;;;;;;;;24.60;53.10;;;;;;4998666;28;87179;-45
2023/08/22 08:03:15;;;;;;;;;;;24.60;53.10;;;;;;5013155;28;87472;-43
2023/08/22 08:05:40;;;;;;;;;;;24.70;53.20;;;;;;5013214;28;87548;-44
2023/08/22 08:08:07;;;;;;;;;;;24.70;53.20;;;;;;5007120;28;88156;-43
2023/08/22 08:10:34;;;;;;;;;;;24.70;53.20;;;;;;5009254;28;87241;-43
2023/08/22 08:12:59;;;;;;;;;;;24.70;53.20;;;;;;5016217;28;87482;-43
2023/08/22 08:15:25;;;;;;;;;;;24.70;53.20;;;;;;5008853;28;86418;-45
2023/08/22 08:17:50;;;;;;;;;;;24.70;53.20;;;;;;5003941;28;87211;-45
2023/08/22 08:20:16;;;;;;;;;;;24.70;53.20;;;;;;5009836;28;87991;-44
2023/08/22 08:22:42;;;;;;;;;;;24.70;53.20;;;;;;5010835;28;88079;-44
2023/08/22 08:25:07;;;;;;;;;;;24.70;53.20;;;;;;5006870;28;88657;-44
2023/08/22 08:27:33;;;;;;;;;;;24.70;53.10;;;;;;5001221;28;88107;-45
2023/08/22 08:29:58;;;;;;;;;;;24.70;53.10;;;;;;5011287;28;87170;-46
2023/08/22 08:32:25;;;;;;;;;;;24.70;53.20;;;;;;5011875;28;87262;-44
2023/08/22 08:34:50;;;;;;;;;;;24.70;53.20;;;;;;5007858;28;88366;-44
2023/08/22 08:37:16;;;;;;;;;;;24.70;53.20;;;;;;4998298;28;87701;-44
2023/08/22 08:39:41;;;;;;;;;;;24.80;53.30;;;;;;5014532;28;87533;-43
2023/08/22 08:42:07;;;;;;;;;;;24.80;53.30;;;;;;5011155;28;87999;-44
2023/08/22 08:44:36;;;;;;;;;;;24.80;53.20;;;;;;5000190;28;87582;-45
2023/08/22 08:47:02;;;;;;;;;;;24.80;53.30;;;;;;5006512;28;88098;-46
2023/08/22 08:49:27;;;;;;;;;;;24.80;53.20;;;;;;5011752;28;87584;-44
2023/08/22 08:51:54;;;;;;;;;;;24.80;53.40;;;;;;5010014;28;87326;-44
2023/08/22 08:54:21;;;;;;;;;;;24.80;54.00;;;;;;5005823;28;88292;-46
2023/08/22 08:56:47;;;;;;;;;;;24.80;53.90;;;;;;5009121;28;87232;-45
2023/08/22 08:59:12;;;;;;;;;;;24.80;54.00;;;;;;5011277;28;88145;-45
2023/08/22 09:01:40;;;;;;;;;;;24.80;54.00;;;;;;5009718;28;87533;-46
2023/08/22 09:04:06;;;;;;;;;;;24.80;54.30;;;;;;5002445;28;88225;-44
2023/08/22 09:06:31;;;;;;;;;;;24.80;54.20;;;;;;5009205;28;88239;-46
2023/08/22 09:09:04;;;;;;;;;;;24.80;54.20;;;;;;5011368;28;87294;-46
2023/08/22 09:11:29;;;;;;;;;;;24.80;54.30;;;;;;5001044;28;88057;-44
2023/08/22 09:13:56;;;;;;;;;;;24.90;54.50;;;;;;5013264;28;88797;-43
2023/08/22 09:16:25;;;;;;;;;;;24.80;54.30;;;;;;5010114;28;87367;-45
2023/08/22 09:18:50;;;;;;;;;;;24.80;54.30;;;;;;5012442;28;87231;-44
2023/08/22 09:21:16;;;;;;;;;;;24.90;54.30;;;;;;5000413;28;87484;-46
2023/08/22 09:23:42;;;;;;;;;;;24.90;54.30;;;;;;5004817;28;87606;-45
2023/08/22 09:26:10;;;;;;;;;;;24.90;54.20;;;;;;5010213;28;87641;-45
2023/08/22 09:28:38;;;;;;;;;;;24.90;54.20;;;;;;5010903;28;86996;-45
2023/08/22 09:31:04;;;;;;;;;;;25.00;54.10;;;;;;5006477;28;87145;-43
2023/08/22 09:33:43;;;;;;;;;;;25.00;54.00;;;;;;5003422;28;88193;-43
2023/08/22 09:36:09;;;;;;;;;;;25.00;53.90;;;;;;5007049;28;88117;-44
2023/08/22 09:38:49;;;;;;;;;;;25.00;53.80;;;;;;5011008;28;88421;-45
2023/08/22 09:41:20;;;;;;;;;;;25.00;53.80;;;;;;5010631;28;87266;-44
2023/08/22 09:43:46;;;;;;;;;;;25.10;53.80;;;;;;5004381;28;87522;-45
2023/08/22 09:46:12;;;;;;;;;;;25.10;53.70;;;;;;5011890;28;88149;-43
2023/08/22 09:48:39;;;;;;;;;;;25.10;53.70;;;;;;5009435;28;88109;-43
2023/08/22 09:51:09;;;;;;;;;;;25.10;53.70;;;;;;5006965;28;87152;-44
2023/08/22 09:53:35;;;;;;;;;;;25.10;53.70;;;;;;5007470;28;87524;-45
2023/08/22 09:56:00;;;;;;;;;;;25.20;53.70;;;;;;5013592;28;87119;-46
2023/08/22 09:58:28;;;;;;;;;;;25.20;53.60;;;;;;5008165;28;87498;-44
2023/08/22 10:00:55;;;;;;;;;;;25.20;53.60;;;;;;5003304;28;89009;-45
2023/08/22 10:03:21;;;;;;;;;;;25.20;53.60;;;;;;5007467;28;87627;-46
2023/08/22 10:05:49;;;;;;;;;;;25.20;53.50;;;;;;5010410;28;87186;-44
2023/08/22 10:08:15;;;;;;;;;;;25.20;53.60;;;;;;5003485;28;87130;-44
2023/08/22 10:10:42;;;;;;;;;;;25.30;53.50;;;;;;5000271;28;87130;-45
2023/08/22 10:13:09;;;;;;;;;;;25.30;53.50;;;;;;5010320;28;88181;-44
2023/08/22 10:15:35;;;;;;;;;;;25.30;53.30;;;;;;5012483;28;87031;-43
2023/08/22 10:18:02;;;;;;;;;;;25.30;53.90;;;;;;5002994;28;86986;-45
2023/08/22 10:20:27;;;;;;;;;;;25.40;53.30;;;;;;5005208;28;89949;-44
2023/08/22 10:22:53;;;;;;;;;;;25.40;53.30;;;;;;5014958;28;87261;-44
2023/08/22 10:25:18;;;;;;;;;;;25.40;53.10;;;;;;5012265;28;88932;-45
2023/08/22 10:27:48;;;;;;;;;;;25.40;53.00;;;;;;5015465;28;87118;-45
2023/08/22 10:30:14;;;;;;;;;;;25.40;52.90;;;;;;5012136;28;87026;-46
2023/08/22 10:32:40;;;;;;;;;;;25.40;53.00;;;;;;5010868;28;87997;-43
2023/08/22 10:35:21;;;;;;;;;;;25.50;53.00;;;;;;5013744;28;87016;-45
2023/08/22 10:37:48;;;;;;;;;;;25.50;52.90;;;;;;5003079;28;87783;-45
2023/08/22 10:40:20;;;;;;;;;;;25.50;52.90;;;;;;5001966;28;88835;-45
2023/08/22 10:42:50;;;;;;;;;;;25.50;52.80;;;;;;5012093;28;86345;-46
2023/08/22 10:45:16;;;;;;;;;;;25.60;52.80;;;;;;5010516;28;87094;-45
2023/08/22 10:47:42;;;;;;;;;;;25.60;52.80;;;;;;4993965;28;88956;-44
2023/08/22 10:50:11;;;;;;;;;;;25.60;52.70;;;;;;5004114;28;89244;-46
2023/08/22 10:52:38;;;;;;;;;;;25.60;52.60;;;;;;5014484;28;88026;-46
2023/08/22 10:55:05;;;;;;;;;;;25.70;52.50;;;;;;5007875;28;87067;-45
2023/08/22 10:57:32;;;;;;;;;;;25.60;52.50;;;;;;5006951;28;87348;-47
2023/08/22 10:59:58;;;;;;;;;;;25.70;53.20;;;;;;5006820;28;88096;-44
2023/08/22 11:02:24;;;;;;;;;;;25.70;52.40;;;;;;5013441;28;87025;-43
2023/08/22 11:04:50;;;;;;;;;;;25.80;52.40;;;;;;5000622;28;87279;-45
2023/08/22 11:07:15;;;;;;;;;;;25.70;52.40;;;;;;5006890;28;87551;-45
2023/08/22 11:09:41;;;;;;;;;;;25.80;52.40;;;;;;5003795;28;86986;-44
2023/08/22 11:12:19;;;;;;;;;;;25.80;52.30;;;;;;5014456;28;88190;-47
2023/08/22 11:14:45;;;;;;;;;;;25.80;52.20;;;;;;5007046;28;88377;-44
2023/08/22 11:17:14;;;;;;;;;;;25.80;52.20;;;;;;5010950;28;88315;-45
2023/08/22 11:19:39;;;;;;;;;;;25.80;52.10;;;;;;5008630;28;88176;-46
2023/08/22 11:22:05;;;;;;;;;;;25.90;52.10;;;;;;5015078;28;87096;-46
2023/08/22 11:24:31;;;;;;;;;;;25.90;52.10;;;;;;5006044;28;87545;-45
2023/08/22 11:27:00;;;;;;;;;;;25.90;52.10;;;;;;5000520;28;87805;-46
2023/08/22 11:29:25;;;;;;;;;;;26.00;52.00;;;;;;5012186;28;87388;-43
2023/08/22 11:31:51;;;;;;;;;;;25.90;51.90;;;;;;5014659;28;87439;-45
2023/08/22 11:34:20;;;;;;;;;;;26.00;51.90;;;;;;5007837;28;87117;-45
2023/08/22 11:36:45;;;;;;;;;;;26.00;51.80;;;;;;5006091;28;88335;-43
2023/08/22 11:39:11;;;;;;;;;;;26.00;51.90;;;;;;5008900;28;88929;-43
2023/08/22 11:41:37;;;;;;;;;;;26.10;52.00;;;;;;5011843;28;87834;-45
2023/08/22 11:44:02;;;;;;;;;;;26.10;51.90;;;;;;5006435;28;87507;-46
2023/08/22 11:46:28;;;;;;;;;;;26.10;51.80;;;;;;5009719;28;88132;-44
2023/08/22 11:48:53;;;;;;;;;;;26.10;51.70;;;;;;5008815;28;87196;-44
2023/08/22 11:51:20;;;;;;;;;;;26.20;51.80;;;;;;5016629;28;87573;-45
2023/08/22 11:53:46;;;;;;;;;;;26.20;51.80;;;;;;5009064;28;87148;-46
2023/08/22 11:56:12;;;;;;;;;;;26.20;51.70;;;;;;5006074;28;88143;-45
2023/08/22 11:58:50;;;;;;;;;;;26.20;51.50;;;;;;5010913;28;88136;-46
2023/08/22 12:01:15;;;;;;;;;;;26.20;51.50;;;;;;5008888;28;87101;-43
2023/08/22 12:03:43;;;;;;;;;;;26.30;51.80;;;;;;5010039;28;88079;-45
2023/08/22 12:06:12;;;;;;;;;;;26.30;51.60;;;;;;5005153;28;91370;-45
2023/08/22 12:08:38;;;;;;;;;;;26.30;51.70;;;;;;5014918;28;87138;-44
2023/08/22 12:11:03;;;;;;;;;;;26.30;51.60;;;;;;5013053;28;87743;-46
2023/08/22 12:13:31;;;;;;;;;;;26.40;51.60;;;;;;5005965;28;87398;-44
2023/08/22 12:15:57;;;;;;;;;;;26.30;51.60;;;;;;5001809;28;87167;-43
2023/08/22 12:18:35;;;;;;;;;;;26.30;51.40;;;;;;5012655;28;87975;-43
2023/08/22 12:21:00;;;;;;;;;;;26.40;51.50;;;;;;5001348;28;86636;-44
2023/08/22 12:23:26;;;;;;;;;;;26.40;51.50;;;;;;5003436;28;87937;-45
2023/08/22 12:25:51;;;;;;;;;;;26.50;51.70;;;;;;5010076;28;88270;-46
2023/08/22 12:28:17;;;;;;;;;;;26.50;51.60;;;;;;5012339;28;88433;-44
2023/08/22 12:30:42;;;;;;;;;;;26.50;51.40;;;;;;5008758;28;88525;-44
2023/08/22 12:33:08;;;;;;;;;;;26.50;51.40;;;;;;5012002;28;88019;-45
2023/08/22 12:35:35;;;;;;;;;;;26.60;51.40;;;;;;5009320;28;87412;-45
2023/08/22 12:38:00;;;;;;;;;;;26.60;51.40;;;;;;5010702;28;88031;-43
2023/08/22 12:40:26;;;;;;;;;;;26.60;51.50;;;;;;5006406;28;87351;-45
2023/08/22 12:42:52;;;;;;;;;;;26.60;51.50;;;;;;5001953;28;87320;-47
2023/08/22 12:45:18;;;;;;;;;;;26.60;51.50;;;;;;5010593;28;87305;-44
2023/08/22 12:47:43;;;;;;;;;;;26.60;51.40;;;;;;5012773;28;87129;-44
2023/08/22 12:50:10;;;;;;;;;;;26.70;51.50;;;;;;5004411;28;87200;-44
2023/08/22 12:52:35;;;;;;;;;;;26.70;51.60;;;;;;4997968;28;89739;-43
2023/08/22 12:55:02;;;;;;;;;;;26.70;51.40;;;;;;5013326;28;87160;-46
2023/08/22 12:57:28;;;;;;;;;;;26.70;51.30;;;;;;5006663;28;88044;-45
2023/08/22 12:59:53;;;;;;;;;;;26.80;51.40;;;;;;5000810;28;87097;-45
2023/08/22 13:02:19;;;;;;;;;;;26.80;51.50;;;;;;5005211;28;87525;-44
2023/08/22 13:04:45;;;;;;;;;;;26.80;51.40;;;;;;5012316;28;88491;-46
2023/08/22 13:07:11;;;;;;;;;;;26.90;51.50;;;;;;5009635;28;87194;-45
2023/08/22 13:09:36;;;;;;;;;;;26.80;51.30;;;;;;5007125;28;87336;-47
2023/08/22 13:12:02;;;;;;;;;;;26.90;51.40;;;;;;5003854;28;88326;-44
2023/08/22 13:14:27;;;;;;;;;;;27.00;51.40;;;;;;5014302;28;87184;-46
2023/08/22 13:16:55;;;;;;;;;;;27.00;51.40;;;;;;5003961;28;88389;-45
2023/08/22 13:19:20;;;;;;;;;;;27.00;51.40;;;;;;5000303;28;88188;-45
2023/08/22 13:21:46;;;;;;;;;;;27.00;51.30;;;;;;5006425;28;88012;-43
2023/08/22 13:24:11;;;;;;;;;;;27.00;51.30;;;;;;5011953;28;88199;-43
2023/08/22 13:26:37;;;;;;;;;;;27.00;51.30;;;;;;5002609;28;88399;-44
2023/08/22 13:29:02;;;;;;;;;;;27.00;51.50;;;;;;5001290;28;87358;-44
2023/08/22 13:31:28;;;;;;;;;;;27.10;51.50;;;;;;5008396;28;88094;-45
2023/08/22 13:33:53;;;;;;;;;;;27.00;51.40;;;;;;5014559;28;86290;-46
2023/08/22 13:36:19;;;;;;;;;;;27.10;51.60;;;;;;5001078;28;87040;-45
2023/08/22 13:38:44;;;;;;;;;;;27.10;51.60;;;;;;5002750;28;88122;-46
2023/08/22 13:41:10;;;;;;;;;;;27.10;51.50;;;;;;5006924;28;89466;-43
2023/08/22 13:43:38;;;;;;;;;;;27.10;51.70;;;;;;5012011;28;88239;-45
2023/08/22 13:46:05;;;;;;;;;;;27.20;51.70;;;;;;5003843;28;87865;-45
2023/08/22 13:48:31;;;;;;;;;;;27.20;51.70;;;;;;5002946;28;87637;-46
2023/08/22 13:50:56;;;;;;;;;;;27.20;51.80;;;;;;5011712;28;88223;-43
2023/08/22 13:53:22;;;;;;;;;;;27.30;51.80;;;;;;5006092;28;87218;-44
2023/08/22 13:55:48;;;;;;;;;;;27.30;51.80;;;;;;5001569;28;87563;-44
2023/08/22 13:58:13;;;;;;;;;;;27.30;51.80;;;;;;5003130;28;87222;-43
2023/08/22 14:00:39;;;;;;;;;;;27.30;51.90;;;;;;5018175;28;87084;-43
2023/08/22 14:03:04;;;;;;;;;;;27.40;52.00;;;;;;5010490;28;88264;-44
2023/08/22 14:05:30;;;;;;;;;;;27.40;51.90;;;;;;5004876;28;89741;-46
2023/08/22 14:07:56;;;;;;;;;;;27.40;52.00;;;;;;5010610;28;88496;-44
2023/08/22 14:10:23;;;;;;;;;;;27.30;52.00;;;;;;5013281;28;87289;-44